createdAt,value
2024-03-12T00:01:10.169Z,37.17
2024-03-12T00:03:44.596Z,37.97
2024-03-12T00:06:12.426Z,42.60
2024-03-12T00:08:40.814Z,38.13
2024-03-12T00:11:07.820Z,39.73
2024-03-12T00:13:35.313Z,45.37
2024-03-12T00:16:02.242Z,45.30
2024-03-12T00:18:29.119Z,41.10
2024-03-12T00:20:56.054Z,42.93
2024-03-12T00:23:26.806Z,42.47
2024-03-12T00:25:53.582Z,45.23
2024-03-12T00:28:20.723Z,42.57
2024-03-12T00:30:47.457Z,42.63
2024-03-12T00:33:14.384Z,41.60
2024-03-12T00:35:44.696Z,42.23
2024-03-12T00:38:11.910Z,43.20
2024-03-12T00:40:39.891Z,51.27
2024-03-12T00:43:08.656Z,45.93
2024-03-12T00:45:40.236Z,42.43
2024-03-12T00:48:10.918Z,44.40
2024-03-12T00:50:39.487Z,43.30
2024-03-12T00:53:08.550Z,45.47
2024-03-12T00:55:37.419Z,43.47
2024-03-12T00:58:08.640Z,41.80
2024-03-12T01:00:35.509Z,43.50
2024-03-12T01:03:02.566Z,41.00
2024-03-12T01:05:32.700Z,46.57
2024-03-12T01:08:01.141Z,43.30
2024-03-12T01:10:29.730Z,45.33
2024-03-12T01:13:01.825Z,44.40
2024-03-12T01:15:29.999Z,42.70
2024-03-12T01:17:57.861Z,44.00
2024-03-12T01:20:28.478Z,41.03
2024-03-12T01:22:55.970Z,43.20
2024-03-12T01:25:23.875Z,53.10
2024-03-12T01:27:57.240Z,40.47
2024-03-12T01:30:28.293Z,41.67
2024-03-12T01:32:56.433Z,44.20
2024-03-12T01:35:25.720Z,53.53
2024-03-12T01:37:58.192Z,45.73
2024-03-12T01:40:31.450Z,46.70
2024-03-12T01:43:04.983Z,50.10
2024-03-12T01:45:52.174Z,53.83
2024-03-12T01:48:19.248Z,44.33
2024-03-12T01:50:46.026Z,49.30
2024-03-12T01:53:13.472Z,46.97
2024-03-12T01:55:44.680Z,50.17
2024-03-12T01:58:18.411Z,47.87
2024-03-12T02:00:46.694Z,60.60
2024-03-12T02:03:14.054Z,47.93
2024-03-12T02:05:42.677Z,52.60
2024-03-12T02:08:10.709Z,55.83
2024-03-12T02:10:37.532Z,48.37
2024-03-12T02:13:04.513Z,54.67
2024-03-12T02:15:31.636Z,50.87
2024-03-12T02:17:58.502Z,58.30
2024-03-12T02:20:27.937Z,54.33
2024-03-12T02:22:56.584Z,56.17
2024-03-12T02:25:24.491Z,52.77
2024-03-12T02:27:53.860Z,50.07
2024-03-12T02:30:21.164Z,55.80
2024-03-12T02:32:49.390Z,55.87
2024-03-12T02:35:17.458Z,60.50
2024-03-12T02:37:44.981Z,61.60
2024-03-12T02:40:16.650Z,53.70
2024-03-12T02:42:44.625Z,59.83
2024-03-12T02:45:16.074Z,60.33
2024-03-12T02:47:44.141Z,57.63
2024-03-12T02:50:11.258Z,67.87
2024-03-12T02:52:39.054Z,59.90
2024-03-12T02:55:07.297Z,65.33
2024-03-12T02:57:34.274Z,62.50
2024-03-12T03:00:01.538Z,60.17
2024-03-12T03:02:30.231Z,68.33
2024-03-12T03:04:56.952Z,63.20
2024-03-12T03:07:26.052Z,76.93
2024-03-12T03:09:53.183Z,69.90
2024-03-12T03:12:20.405Z,71.17
2024-03-12T03:14:47.303Z,58.60
2024-03-12T03:17:17.238Z,63.10
2024-03-12T03:19:44.185Z,68.47
2024-03-12T03:22:11.052Z,59.93
2024-03-12T03:24:38.576Z,64.17
2024-03-12T03:27:05.690Z,60.93
2024-03-12T03:29:34.397Z,64.50
2024-03-12T03:32:01.533Z,63.13
2024-03-12T03:34:33.311Z,63.47
2024-03-12T03:37:00.771Z,67.93
2024-03-12T03:39:27.724Z,60.73
2024-03-12T03:41:56.286Z,58.93
2024-03-12T03:44:23.734Z,58.13
2024-03-12T03:46:50.702Z,57.43
2024-03-12T03:49:17.697Z,66.17
2024-03-12T03:51:44.529Z,61.47
2024-03-12T03:54:11.290Z,60.60
2024-03-12T03:56:38.795Z,54.73
2024-03-12T03:59:06.700Z,57.23
2024-03-12T04:01:34.661Z,48.93
2024-03-12T04:04:12.657Z,56.87
2024-03-12T04:06:40.225Z,53.30
2024-03-12T04:09:07.183Z,58.47
2024-03-12T04:11:34.939Z,52.73
2024-03-12T04:14:03.648Z,54.53
2024-03-12T04:16:33.093Z,49.50
2024-03-12T04:19:02.616Z,53.23
2024-03-12T04:21:29.474Z,46.57
2024-03-12T04:23:56.479Z,47.50
2024-03-12T04:26:23.403Z,42.30
2024-03-12T04:28:50.277Z,36.63
2024-03-12T04:31:17.688Z,39.77
2024-03-12T04:33:44.686Z,43.43
2024-03-12T04:36:14.916Z,41.27
2024-03-12T04:38:41.800Z,40.70
2024-03-12T04:41:08.617Z,38.43
2024-03-12T04:43:35.530Z,37.57
2024-03-12T04:46:02.328Z,38.87
2024-03-12T04:48:29.086Z,43.70
2024-03-12T04:50:56.379Z,40.10
2024-03-12T04:53:24.308Z,36.57
2024-03-12T04:55:51.283Z,38.27
2024-03-12T04:58:17.994Z,35.47
2024-03-12T05:00:45.013Z,38.03
2024-03-12T05:03:11.800Z,37.00
2024-03-12T05:05:38.521Z,31.50
2024-03-12T05:08:05.603Z,32.90
2024-03-12T05:10:32.267Z,32.13
2024-03-12T05:12:59.146Z,32.17
2024-03-12T05:15:26.149Z,31.67
2024-03-12T05:17:53.716Z,34.23
2024-03-12T05:20:24.349Z,28.20
2024-03-12T05:22:55.136Z,32.07
2024-03-12T05:25:27.773Z,26.50
2024-03-12T05:27:54.688Z,26.43
2024-03-12T05:30:23.980Z,27.83
2024-03-12T05:32:51.422Z,26.80
2024-03-12T05:35:21.194Z,23.40
2024-03-12T05:38:02.620Z,26.10
2024-03-12T05:40:52.710Z,27.97
2024-03-12T05:43:38.193Z,30.40
2024-03-12T05:46:23.565Z,27.10
2024-03-12T05:48:53.656Z,23.10
2024-03-12T05:51:21.290Z,29.60
2024-03-12T05:53:48.521Z,25.20
2024-03-12T05:56:18.299Z,25.30
2024-03-12T05:58:48.998Z,24.57
2024-03-12T06:01:16.743Z,33.73
2024-03-12T06:03:43.835Z,35.10
2024-03-12T06:06:10.818Z,33.77
2024-03-12T06:08:39.232Z,34.90
2024-03-12T06:11:08.892Z,37.67
2024-03-12T06:13:36.001Z,35.83
2024-03-12T06:16:06.198Z,32.00
2024-03-12T06:18:33.181Z,39.00
2024-03-12T06:21:00.072Z,38.50
2024-03-12T06:23:27.188Z,41.60
2024-03-12T06:25:54.618Z,34.77
2024-03-12T06:28:23.563Z,39.57
2024-03-12T06:30:50.764Z,36.87
2024-03-12T06:33:20.407Z,37.17
2024-03-12T06:35:48.987Z,42.97
2024-03-12T06:38:21.665Z,42.00
2024-03-12T06:40:51.445Z,42.57
2024-03-12T06:43:21.423Z,35.30
2024-03-12T06:45:48.483Z,43.77
2024-03-12T06:48:19.418Z,36.53
2024-03-12T06:50:47.077Z,37.73
2024-03-12T06:53:15.627Z,43.33
2024-03-12T06:55:42.886Z,36.00
2024-03-12T06:58:13.123Z,45.47
2024-03-12T07:00:45.700Z,42.80
2024-03-12T07:03:15.798Z,47.70
2024-03-12T07:05:48.222Z,42.23
2024-03-12T07:08:18.157Z,45.50
2024-03-12T07:10:46.386Z,45.57
2024-03-12T07:13:14.081Z,48.10
2024-03-12T07:15:42.837Z,39.77
2024-03-12T07:18:12.918Z,41.13
2024-03-12T07:20:40.467Z,47.60
2024-03-12T07:23:07.943Z,45.03
2024-03-12T07:25:35.059Z,43.37
2024-03-12T07:28:09.486Z,46.20
2024-03-12T07:30:41.820Z,45.17
2024-03-12T07:33:08.769Z,44.30
2024-03-12T07:35:36.233Z,40.27
2024-03-12T07:38:04.455Z,36.03
2024-03-12T07:40:31.912Z,39.03
2024-03-12T07:43:00.168Z,36.37
2024-03-12T07:45:27.894Z,40.70
2024-03-12T07:47:54.961Z,37.77
2024-03-12T07:50:22.657Z,38.73
2024-03-12T07:52:49.483Z,32.97
2024-03-12T07:55:16.487Z,37.13
2024-03-12T07:57:46.514Z,38.90
2024-03-12T08:00:17.410Z,37.40
2024-03-12T08:02:44.526Z,40.43
2024-03-12T08:05:13.375Z,31.10
2024-03-12T08:07:40.298Z,31.50
2024-03-12T08:10:07.702Z,33.80
2024-03-12T08:12:37.038Z,35.10
2024-03-12T08:15:08.280Z,30.97
2024-03-12T08:17:35.074Z,34.43
2024-03-12T08:20:01.816Z,39.33
2024-03-12T08:22:30.023Z,37.43
2024-03-12T08:24:56.721Z,37.57
2024-03-12T08:27:23.905Z,36.43
2024-03-12T08:29:50.793Z,35.27
2024-03-12T08:32:21.959Z,42.47
2024-03-12T08:34:48.635Z,38.90
2024-03-12T08:37:15.619Z,46.47
2024-03-12T08:39:42.556Z,48.70
2024-03-12T08:42:11.236Z,46.00
2024-03-12T08:44:38.492Z,42.67
2024-03-12T08:47:06.194Z,41.10
2024-03-12T08:49:34.493Z,49.23
2024-03-12T08:52:01.302Z,47.00
2024-03-12T08:54:28.721Z,40.90
2024-03-12T08:56:55.897Z,45.43
2024-03-12T08:59:22.796Z,47.73
2024-03-12T09:01:52.423Z,43.83
2024-03-12T09:04:20.578Z,41.57
2024-03-12T09:06:50.712Z,44.40
2024-03-12T09:09:19.686Z,36.80
2024-03-12T09:11:47.814Z,40.13
2024-03-12T09:14:14.821Z,44.87
2024-03-12T09:16:41.993Z,37.40
2024-03-12T09:19:10.239Z,44.17
2024-03-12T09:21:37.668Z,36.87
2024-03-12T09:24:06.302Z,39.07
2024-03-12T09:26:34.798Z,36.57
2024-03-12T09:29:02.046Z,33.97
2024-03-12T09:31:29.125Z,41.07
2024-03-12T09:33:56.630Z,32.63
2024-03-12T09:36:25.666Z,33.17
2024-03-12T09:38:52.738Z,32.47
2024-03-12T09:41:22.281Z,34.37
2024-03-12T09:43:50.005Z,43.53
2024-03-12T09:46:18.517Z,35.03
2024-03-12T09:48:47.149Z,32.70
2024-03-12T09:51:14.554Z,33.27
2024-03-12T09:53:43.280Z,31.77
2024-03-12T09:56:12.187Z,35.10
2024-03-12T09:58:39.559Z,29.30
2024-03-12T10:01:07.497Z,29.17
2024-03-12T10:03:38.389Z,29.40
2024-03-12T10:06:07.996Z,26.10
2024-03-12T10:08:36.243Z,25.80
2024-03-12T10:11:09.791Z,26.90
2024-03-12T10:13:37.683Z,32.30
2024-03-12T10:16:05.221Z,34.63
2024-03-12T10:18:34.467Z,31.73
2024-03-12T10:21:04.772Z,36.07
2024-03-12T10:23:36.854Z,31.43
2024-03-12T10:26:10.584Z,34.47
2024-03-12T10:28:38.978Z,32.97
2024-03-12T10:31:11.866Z,36.20
2024-03-12T10:33:49.487Z,34.83
2024-03-12T10:36:33.361Z,31.17
2024-03-12T10:39:01.220Z,36.27
2024-03-12T10:41:29.627Z,39.37
2024-03-12T10:44:11.930Z,39.17
2024-03-12T10:46:44.586Z,31.90
2024-03-12T10:49:19.116Z,33.40
2024-03-12T10:51:47.147Z,35.93
2024-03-12T10:54:15.414Z,36.20
2024-03-12T10:56:43.168Z,40.47
2024-03-12T10:59:13.496Z,36.93
2024-03-12T11:01:41.860Z,45.10
2024-03-12T11:04:13.801Z,32.00
2024-03-12T11:06:40.894Z,39.57
2024-03-12T11:09:09.228Z,42.83
2024-03-12T11:11:36.417Z,37.27
2024-03-12T11:14:07.976Z,40.93
2024-03-12T11:16:37.714Z,41.57
2024-03-12T11:19:20.127Z,39.07
2024-03-12T11:21:51.282Z,39.90
2024-03-12T11:24:43.934Z,43.03
2024-03-12T11:27:35.830Z,38.57
2024-03-12T11:30:06.446Z,35.60
2024-03-12T11:32:43.304Z,42.10
2024-03-12T11:35:19.244Z,44.90
2024-03-12T11:38:01.882Z,40.80
2024-03-12T11:40:32.726Z,41.63
2024-03-12T11:43:00.259Z,50.90
2024-03-12T11:45:48.220Z,46.33
2024-03-12T11:48:23.160Z,47.77
2024-03-12T11:50:57.355Z,44.77
2024-03-12T11:53:26.869Z,48.00
2024-03-12T11:56:12.019Z,48.60
2024-03-12T11:58:53.621Z,42.73
2024-03-12T12:01:27.528Z,50.57
2024-03-12T12:04:01.758Z,42.00
2024-03-12T12:06:29.250Z,50.93
2024-03-12T12:09:00.688Z,49.30
2024-03-12T12:11:30.021Z,59.90
2024-03-12T12:14:00.557Z,51.70
2024-03-12T12:16:29.516Z,50.53
2024-03-12T12:19:06.649Z,46.27
2024-03-12T12:21:34.638Z,45.20
2024-03-12T12:24:05.140Z,43.73
2024-03-12T12:26:37.755Z,50.47
2024-03-12T12:29:05.747Z,46.77
2024-03-12T12:31:38.202Z,47.17
2024-03-12T12:34:07.703Z,46.73
2024-03-12T12:36:39.584Z,45.27
2024-03-12T12:39:11.224Z,45.57
2024-03-12T12:41:43.785Z,48.97
2024-03-12T12:44:16.969Z,48.00
2024-03-12T12:46:45.254Z,50.00
2024-03-12T12:49:15.072Z,42.20
2024-03-12T12:51:43.135Z,45.00
2024-03-12T12:54:10.808Z,48.93
2024-03-12T12:56:42.733Z,51.30
2024-03-12T12:59:17.786Z,56.60
2024-03-12T13:01:49.510Z,43.80
2024-03-12T13:04:25.577Z,46.57
2024-03-12T13:06:56.081Z,42.20
2024-03-12T13:09:28.849Z,45.73
2024-03-12T13:11:57.439Z,47.13
2024-03-12T13:14:28.017Z,47.03
2024-03-12T13:16:55.593Z,46.30
2024-03-12T13:19:24.039Z,51.00
2024-03-12T13:21:51.730Z,49.00
2024-03-12T13:24:21.393Z,48.00
2024-03-12T13:26:52.801Z,46.53
2024-03-12T13:29:19.828Z,45.10
2024-03-12T13:31:47.750Z,51.10
2024-03-12T13:34:17.603Z,41.40
2024-03-12T13:36:45.705Z,45.60
2024-03-12T13:39:16.391Z,45.80
2024-03-12T13:41:43.666Z,47.50
2024-03-12T13:44:18.297Z,52.93
2024-03-12T13:46:45.201Z,49.33
2024-03-12T13:49:15.705Z,55.27
2024-03-12T13:51:48.911Z,55.37
2024-03-12T13:54:18.851Z,49.17
2024-03-12T13:56:46.635Z,54.70
2024-03-12T13:59:28.053Z,51.07
2024-03-12T14:01:55.069Z,45.77
2024-03-12T14:04:22.476Z,45.50
2024-03-12T14:06:49.553Z,51.93
2024-03-12T14:09:16.636Z,50.37
2024-03-12T14:11:43.700Z,46.10
2024-03-12T14:14:11.115Z,52.60
2024-03-12T14:19:07.093Z,46.27
2024-03-12T14:21:34.738Z,51.20
2024-03-12T14:24:04.031Z,51.37
2024-03-12T14:26:31.204Z,49.60
2024-03-12T14:28:58.051Z,43.47
2024-03-12T14:31:26.622Z,48.50
2024-03-12T14:33:53.946Z,50.80
2024-03-12T14:36:21.035Z,48.80
2024-03-12T14:38:50.098Z,52.27
2024-03-12T14:41:19.113Z,52.87
2024-03-12T14:43:46.013Z,45.93
2024-03-12T14:46:13.588Z,45.20
2024-03-12T14:48:40.618Z,45.87
2024-03-12T14:51:07.755Z,53.53
2024-03-12T14:53:34.564Z,48.07
2024-03-12T14:56:02.835Z,56.80
2024-03-12T14:58:29.851Z,54.80
2024-03-12T15:00:56.865Z,54.20
2024-03-12T15:05:58.719Z,45.20
2024-03-12T15:08:25.618Z,48.30
2024-03-12T15:10:53.110Z,48.77
2024-03-12T15:13:21.562Z,50.10
2024-03-12T15:15:48.514Z,52.47
2024-03-12T15:18:15.585Z,53.43
2024-03-12T15:20:43.381Z,41.53
2024-03-12T15:23:10.791Z,57.10
2024-03-12T15:25:37.858Z,44.80
2024-03-12T15:28:05.361Z,50.70
2024-03-12T15:30:34.586Z,47.93
2024-03-12T15:33:01.850Z,49.40
2024-03-12T15:35:29.117Z,51.07
2024-03-12T15:37:59.462Z,45.87
2024-03-12T15:40:26.449Z,57.17
2024-03-12T15:42:53.633Z,53.47
2024-03-12T15:45:21.847Z,47.40
2024-03-12T15:47:48.842Z,43.17
2024-03-12T15:50:18.934Z,53.57
2024-03-12T15:52:46.488Z,49.67
2024-03-12T15:55:14.341Z,53.33
2024-03-12T15:57:43.294Z,45.93
2024-03-12T16:00:14.747Z,49.40
2024-03-12T16:02:42.432Z,51.97
2024-03-12T16:05:09.643Z,47.60
2024-03-12T16:07:36.612Z,54.10
2024-03-12T16:10:05.380Z,51.00
2024-03-12T16:12:32.533Z,57.20
2024-03-12T16:14:59.620Z,54.17
2024-03-12T16:19:57.653Z,50.53
2024-03-12T16:22:24.583Z,54.80
2024-03-12T16:24:51.548Z,54.10
2024-03-12T16:27:18.464Z,56.93
2024-03-12T16:29:47.476Z,51.20
2024-03-12T16:32:14.415Z,55.30
2024-03-12T16:34:41.286Z,51.57
2024-03-12T16:37:09.895Z,55.97
2024-03-12T16:39:39.782Z,50.87
2024-03-12T16:42:07.192Z,50.97
2024-03-12T16:44:34.065Z,54.20
2024-03-12T16:47:05.777Z,50.77
2024-03-12T16:49:34.057Z,52.57
2024-03-12T16:52:02.284Z,52.10
2024-03-12T16:54:31.247Z,57.80
2024-03-12T16:56:59.926Z,46.50
2024-03-12T17:01:55.048Z,48.67
2024-03-12T17:04:24.705Z,51.47
2024-03-12T17:06:59.398Z,47.83
2024-03-12T17:09:26.543Z,44.83
2024-03-12T17:11:53.864Z,49.40
2024-03-12T17:14:27.650Z,51.80
2024-03-12T17:17:00.718Z,49.10
2024-03-12T17:19:28.527Z,52.13
2024-03-12T17:22:17.292Z,40.57
2024-03-12T17:24:52.076Z,43.10
2024-03-12T17:27:20.292Z,47.93
2024-03-12T17:29:50.363Z,49.37
2024-03-12T17:32:17.664Z,46.90
2024-03-12T17:34:44.805Z,45.87
2024-03-12T17:37:16.981Z,50.33
2024-03-12T17:39:49.062Z,45.73
2024-03-12T17:42:21.142Z,44.60
2024-03-12T17:44:52.062Z,46.87
2024-03-12T17:47:22.116Z,48.53
2024-03-12T17:49:53.105Z,50.40
2024-03-12T17:52:20.255Z,50.60
2024-03-12T17:54:47.662Z,50.53
2024-03-12T17:57:15.647Z,49.67
2024-03-12T17:59:44.364Z,60.53
2024-03-12T18:02:13.803Z,50.50
2024-03-12T18:04:41.877Z,50.53
2024-03-12T18:07:23.286Z,46.03
2024-03-12T18:09:58.034Z,49.57
2024-03-12T18:12:25.104Z,50.70
2024-03-12T18:14:52.198Z,49.03
2024-03-12T18:17:21.822Z,47.00
2024-03-12T18:19:48.934Z,49.33
2024-03-12T18:22:17.345Z,47.77
2024-03-12T18:24:45.150Z,54.23
2024-03-12T18:27:11.951Z,50.30
2024-03-12T18:29:39.077Z,43.57
2024-03-12T18:32:07.327Z,45.20
2024-03-12T18:34:34.433Z,36.07
2024-03-12T18:37:02.877Z,35.83
2024-03-12T18:39:29.655Z,31.60
2024-03-12T18:41:56.502Z,36.97
2024-03-12T18:44:23.277Z,39.37
2024-03-12T18:46:50.632Z,37.07
2024-03-12T18:49:19.527Z,32.50
2024-03-12T18:52:05.740Z,31.13
2024-03-12T18:54:46.250Z,31.43
2024-03-12T18:57:35.761Z,29.20
2024-03-12T19:00:32.333Z,28.00
2024-03-12T19:03:16.546Z,26.67
2024-03-12T19:06:07.373Z,26.63
2024-03-12T19:09:01.834Z,23.70
2024-03-12T19:11:39.151Z,23.30
2024-03-12T19:14:23.955Z,24.63
2024-03-12T19:17:16.212Z,22.13
2024-03-12T19:20:01.489Z,31.73
2024-03-12T19:22:35.322Z,24.30
2024-03-12T19:25:25.208Z,26.37
2024-03-12T19:28:13.908Z,23.37
2024-03-12T19:30:59.374Z,18.30
2024-03-12T19:33:31.891Z,16.93
2024-03-12T19:36:13.982Z,17.47
2024-03-12T19:38:59.029Z,16.93
2024-03-12T19:41:39.142Z,17.10
2024-03-12T19:44:09.864Z,18.60
2024-03-12T19:46:43.964Z,16.67
2024-03-12T19:49:17.279Z,17.00
2024-03-12T19:51:55.739Z,24.50
2024-03-12T19:54:30.424Z,12.77
2024-03-12T19:57:13.586Z,20.23
2024-03-12T20:00:04.305Z,17.53
2024-03-12T20:02:49.398Z,16.70
2024-03-12T20:05:29.801Z,18.07
2024-03-12T20:08:07.385Z,19.93
2024-03-12T20:10:50.907Z,19.10
2024-03-12T20:13:38.078Z,20.20
2024-03-12T20:16:20.479Z,25.57
2024-03-12T20:19:06.231Z,19.40
2024-03-12T20:21:42.450Z,17.50
2024-03-12T20:24:18.642Z,15.23
2024-03-12T20:26:49.093Z,17.03
2024-03-12T20:29:32.176Z,17.97
2024-03-12T20:31:59.572Z,18.90
2024-03-12T20:34:39.907Z,13.73
2024-03-12T20:37:27.265Z,15.23
2024-03-12T20:39:59.283Z,13.87
2024-03-12T20:42:40.340Z,11.50
2024-03-12T20:45:11.815Z,17.50
2024-03-12T20:47:42.661Z,15.03
2024-03-12T20:50:24.500Z,13.30
2024-03-12T20:53:04.870Z,13.70
2024-03-12T20:55:45.832Z,12.53
2024-03-12T20:58:27.755Z,10.83
2024-03-12T21:01:05.256Z,13.40
2024-03-12T21:03:36.108Z,14.73
2024-03-12T21:06:10.388Z,13.07
2024-03-12T21:08:59.508Z,14.03
2024-03-12T21:11:43.176Z,18.03
2024-03-12T21:14:30.558Z,14.17
2024-03-12T21:17:10.461Z,14.70
2024-03-12T21:19:52.392Z,10.23
2024-03-12T21:22:28.891Z,16.00
2024-03-12T21:25:22.458Z,12.47
2024-03-12T21:27:55.329Z,14.23
2024-03-12T21:30:26.472Z,17.40
2024-03-12T21:33:03.465Z,20.23
2024-03-12T21:35:30.614Z,14.67
2024-03-12T21:40:53.234Z,14.00
2024-03-12T21:43:25.905Z,17.63
2024-03-12T21:46:01.026Z,17.40
2024-03-12T21:48:45.030Z,15.43
2024-03-12T21:51:23.283Z,14.37
2024-03-12T21:54:15.773Z,13.67
2024-03-12T21:56:54.783Z,15.07
2024-03-12T21:59:39.403Z,17.30
2024-03-12T22:02:33.440Z,17.87
2024-03-12T22:05:27.398Z,16.70
2024-03-12T22:08:05.923Z,21.93
2024-03-12T22:10:48.720Z,17.90
2024-03-12T22:13:31.711Z,16.73
2024-03-12T22:16:14.168Z,18.47
2024-03-12T22:19:10.052Z,18.80
2024-03-12T22:22:26.958Z,18.40
2024-03-12T22:25:06.519Z,16.43
2024-03-12T22:28:06.116Z,15.10
2024-03-12T22:31:19.193Z,21.20
2024-03-12T22:34:08.141Z,19.27
2024-03-12T22:36:54.644Z,15.63
2024-03-12T22:39:52.256Z,15.03
2024-03-12T22:42:42.612Z,15.50
2024-03-12T22:45:41.898Z,13.53
2024-03-12T22:48:48.044Z,21.00
2024-03-12T22:51:55.792Z,15.63
2024-03-12T22:54:47.825Z,13.77
2024-03-12T23:01:20.213Z,13.30
2024-03-12T23:04:14.837Z,19.33
2024-03-12T23:07:19.892Z,15.07
2024-03-12T23:10:31.985Z,15.03
2024-03-12T23:13:14.871Z,16.00
2024-03-12T23:16:05.049Z,15.00
2024-03-12T23:18:56.804Z,22.60
2024-03-12T23:24:50.049Z,16.27
2024-03-12T23:27:59.173Z,22.47
2024-03-12T23:31:00.973Z,24.73
2024-03-12T23:36:34.215Z,14.93
2024-03-12T23:39:01.170Z,16.00
2024-03-12T23:41:31.263Z,20.13
2024-03-12T23:43:58.485Z,18.77
2024-03-12T23:46:25.852Z,22.67
2024-03-12T23:48:56.723Z,16.93
2024-03-12T23:51:26.313Z,17.27
2024-03-12T23:53:55.528Z,21.00
2024-03-12T23:56:22.660Z,19.47
2024-03-12T23:58:49.483Z,24.20
